Jacobsburg, Ohio
Current Conditions -  °F | °C
As of 4:03 AM on Wednesday 22 Oct 2014 (Local Time) from KHLG Reporting Station
Overcast Overcast  
Wind Chill: 43°   Ceiling: 1100
Heat Index: 47°   Visibility: 10mi
Dew Point: 44°   Wind: 9mph
Humidity: 90%   Direction: 340°NNW
Pressure: 30.05"   Gusts: NA
Location:  39.97°N, 80.9°W
Report Text: KHLG 220803Z AUTO 34008KT 10SM OVC011 08/07 A3005 RMK AO2 CIG 007V013 T00830067
Loading
Personal Weather Stations






























Interactive Weather Map
Tropical Storm Tracking
New forecast layout! Learn more

10-Day Weather Forecast

Advertisements
Track Severe Weather on mobile